Honobia, Oklahoma
Current Conditions -  °F | °C
As of 6:15 PM on Monday 24 Nov 2014 (Local Time) from KRKR Reporting Station
Clear Clear  
Wind Chill: 50°   Ceiling: Unl
Heat Index: 50°   Visibility: 10mi
Dew Point: 21°   Wind: 0mph
Humidity: 32%   Direction: NA
Pressure: 30.02"   Gusts: NA
Location:  34.54°N, 94.94°W
Report Text: KRKR 250015Z AUTO 00000KT 10SM CLR 10/M06 A3002 RMK AO2 T00991062
Loading
Personal Weather Stations






























Interactive Weather Map New forecast layout! Learn more

10-Day Weather Forecast

Advertisements
Track Severe Weather on mobile